sensor_id;sensor_type;location;lat;lon;timestamp;temperature;humidity
24744;DHT22;12844;52.110;5.548;2022-10-31T00:00:50;21.80;60.80
24744;DHT22;12844;52.110;5.548;2022-10-31T00:03:16;21.70;60.80
24744;DHT22;12844;52.110;5.548;2022-10-31T00:05:44;21.80;60.80
24744;DHT22;12844;52.110;5.548;2022-10-31T00:08:10;21.80;60.70
24744;DHT22;12844;52.110;5.548;2022-10-31T00:10:40;21.80;60.80
24744;DHT22;12844;52.110;5.548;2022-10-31T00:13:06;21.80;60.70
24744;DHT22;12844;52.110;5.548;2022-10-31T00:15:33;21.70;60.70
24744;DHT22;12844;52.110;5.548;2022-10-31T00:17:59;21.80;60.70
24744;DHT22;12844;52.110;5.548;2022-10-31T11:32:24;21.30;59.60
24744;DHT22;12844;52.110;5.548;2022-10-31T11:34:53;21.30;59.60
24744;DHT22;12844;52.110;5.548;2022-10-31T11:37:28;21.40;59.60
24744;DHT22;12844;52.110;5.548;2022-10-31T11:39:57;21.40;59.60
24744;DHT22;12844;52.110;5.548;2022-10-31T11:42:26;21.40;59.60
24744;DHT22;12844;52.110;5.548;2022-10-31T11:44:54;21.40;59.60
24744;DHT22;12844;52.110;5.548;2022-10-31T11:47:28;21.40;59.60
24744;DHT22;12844;52.110;5.548;2022-10-31T11:49:56;21.40;59.50
24744;DHT22;12844;52.110;5.548;2022-10-31T11:52:24;21.40;59.60
24744;DHT22;12844;52.110;5.548;2022-10-31T11:55:14;21.40;59.60
24744;DHT22;12844;52.110;5.548;2022-10-31T11:57:51;21.40;59.60
24744;DHT22;12844;52.110;5.548;2022-10-31T12:00:27;21.40;59.60
24744;DHT22;12844;52.110;5.548;2022-10-31T12:05:47;21.40;59.60
24744;DHT22;12844;52.110;5.548;2022-10-31T12:08:14;21.30;59.70
24744;DHT22;12844;52.110;5.548;2022-10-31T12:13:33;21.40;59.80
24744;DHT22;12844;52.110;5.548;2022-10-31T12:16:10;21.30;59.80
24744;DHT22;12844;52.110;5.548;2022-10-31T12:18:58;21.40;59.90
24744;DHT22;12844;52.110;5.548;2022-10-31T12:24:35;21.40;59.90
24744;DHT22;12844;52.110;5.548;2022-10-31T12:40:47;21.40;60.20
24744;DHT22;12844;52.110;5.548;2022-10-31T12:44:10;21.40;60.40
24744;DHT22;12844;52.110;5.548;2022-10-31T12:55:29;21.40;60.70
24744;DHT22;12844;52.110;5.548;2022-10-31T12:58:03;21.50;60.60
24744;DHT22;12844;52.110;5.548;2022-10-31T13:00:31;21.40;60.60
24744;DHT22;12844;52.110;5.548;2022-10-31T13:03:19;21.40;60.60
24744;DHT22;12844;52.110;5.548;2022-10-31T13:05:51;21.50;60.50
24744;DHT22;12844;52.110;5.548;2022-10-31T13:08:34;21.50;60.50
24744;DHT22;12844;52.110;5.548;2022-10-31T13:11:24;21.50;60.40
24744;DHT22;12844;52.110;5.548;2022-10-31T13:14:00;21.50;60.40
24744;DHT22;12844;52.110;5.548;2022-10-31T13:16:30;21.40;60.40
24744;DHT22;12844;52.110;5.548;2022-10-31T13:19:18;21.50;60.40
24744;DHT22;12844;52.110;5.548;2022-10-31T13:21:57;21.50;60.40
24744;DHT22;12844;52.110;5.548;2022-10-31T13:27:15;21.40;60.30
24744;DHT22;12844;52.110;5.548;2022-10-31T13:30:04;21.40;60.20
24744;DHT22;12844;52.110;5.548;2022-10-31T13:32:50;21.50;60.20
24744;DHT22;12844;52.110;5.548;2022-10-31T13:35:32;21.40;60.20
24744;DHT22;12844;52.110;5.548;2022-10-31T13:44:00;21.40;60.20
24744;DHT22;12844;52.110;5.548;2022-10-31T13:48:58;21.40;60.20
24744;DHT22;12844;52.110;5.548;2022-10-31T13:51:42;21.40;60.10
24744;DHT22;12844;52.110;5.548;2022-10-31T13:54:22;21.50;60.10
24744;DHT22;12844;52.110;5.548;2022-10-31T13:56:51;21.40;60.00
24744;DHT22;12844;52.110;5.548;2022-10-31T13:59:20;21.40;60.00
24744;DHT22;12844;52.110;5.548;2022-10-31T14:01:49;21.40;60.00
24744;DHT22;12844;52.110;5.548;2022-10-31T14:04:24;21.40;60.00
24744;DHT22;12844;52.110;5.548;2022-10-31T14:07:10;21.40;60.00
24744;DHT22;12844;52.110;5.548;2022-10-31T14:09:39;21.50;60.00
24744;DHT22;12844;52.110;5.548;2022-10-31T14:12:37;21.40;60.00
24744;DHT22;12844;52.110;5.548;2022-10-31T14:15:16;21.50;60.00
24744;DHT22;12844;52.110;5.548;2022-10-31T14:17:52;21.40;60.00
24744;DHT22;12844;52.110;5.548;2022-10-31T14:22:43;21.40;60.00
24744;DHT22;12844;52.110;5.548;2022-10-31T14:25:35;21.40;60.00
24744;DHT22;12844;52.110;5.548;2022-10-31T14:28:05;21.40;59.90
24744;DHT22;12844;52.110;5.548;2022-10-31T14:30:55;21.40;60.00
24744;DHT22;12844;52.110;5.548;2022-10-31T14:33:22;21.40;60.00
24744;DHT22;12844;52.110;5.548;2022-10-31T14:36:07;21.40;60.00
24744;DHT22;12844;52.110;5.548;2022-10-31T14:38:53;21.40;59.90
24744;DHT22;12844;52.110;5.548;2022-10-31T14:41:46;21.40;59.90
24744;DHT22;12844;52.110;5.548;2022-10-31T14:52:18;21.40;59.90
24744;DHT22;12844;52.110;5.548;2022-10-31T14:54:49;21.40;60.00
24744;DHT22;12844;52.110;5.548;2022-10-31T14:57:36;21.40;60.00
24744;DHT22;12844;52.110;5.548;2022-10-31T15:00:07;21.40;59.90
24744;DHT22;12844;52.110;5.548;2022-10-31T15:02:55;21.40;60.00
24744;DHT22;12844;52.110;5.548;2022-10-31T15:05:26;21.40;60.10
24744;DHT22;12844;52.110;5.548;2022-10-31T15:07:56;21.40;60.10
24744;DHT22;12844;52.110;5.548;2022-10-31T15:10:28;21.40;60.20
24744;DHT22;12844;52.110;5.548;2022-10-31T15:12:55;21.40;61.00
24744;DHT22;12844;52.110;5.548;2022-10-31T15:15:25;21.40;60.30
24744;DHT22;12844;52.110;5.548;2022-10-31T15:17:59;21.40;60.30
24744;DHT22;12844;52.110;5.548;2022-10-31T15:20:28;21.40;60.30
24744;DHT22;12844;52.110;5.548;2022-10-31T15:22:56;21.40;60.40
24744;DHT22;12844;52.110;5.548;2022-10-31T15:25:24;21.40;60.40
24744;DHT22;12844;52.110;5.548;2022-10-31T15:27:51;21.40;60.40
24744;DHT22;12844;52.110;5.548;2022-10-31T15:30:25;21.50;60.40
24744;DHT22;12844;52.110;5.548;2022-10-31T15:32:51;21.40;60.40
24744;DHT22;12844;52.110;5.548;2022-10-31T15:35:28;21.40;60.50
24744;DHT22;12844;52.110;5.548;2022-10-31T15:37:54;21.40;60.40
24744;DHT22;12844;52.110;5.548;2022-10-31T15:40:24;21.40;60.60
24744;DHT22;12844;52.110;5.548;2022-10-31T15:43:02;21.40;60.60
24744;DHT22;12844;52.110;5.548;2022-10-31T15:45:29;21.40;60.50
24744;DHT22;12844;52.110;5.548;2022-10-31T15:48:00;21.40;60.70
24744;DHT22;12844;52.110;5.548;2022-10-31T15:50:39;21.40;60.80
24744;DHT22;12844;52.110;5.548;2022-10-31T15:53:13;21.50;60.90
24744;DHT22;12844;52.110;5.548;2022-10-31T15:55:48;21.40;61.00
24744;DHT22;12844;52.110;5.548;2022-10-31T15:58:16;21.40;61.10
24744;DHT22;12844;52.110;5.548;2022-10-31T16:00:42;21.50;61.10
24744;DHT22;12844;52.110;5.548;2022-10-31T16:05:55;21.50;61.20
24744;DHT22;12844;52.110;5.548;2022-10-31T16:08:26;21.40;61.90
24744;DHT22;12844;52.110;5.548;2022-10-31T16:10:52;21.50;61.20
24744;DHT22;12844;52.110;5.548;2022-10-31T16:13:29;21.40;61.20
24744;DHT22;12844;52.110;5.548;2022-10-31T16:16:22;21.50;61.20
24744;DHT22;12844;52.110;5.548;2022-10-31T16:18:50;21.50;61.20
24744;DHT22;12844;52.110;5.548;2022-10-31T16:21:27;21.40;61.30
24744;DHT22;12844;52.110;5.548;2022-10-31T16:23:59;21.50;61.30
24744;DHT22;12844;52.110;5.548;2022-10-31T16:26:25;21.40;61.30
24744;DHT22;12844;52.110;5.548;2022-10-31T16:28:53;21.40;61.30
24744;DHT22;12844;52.110;5.548;2022-10-31T16:31:30;21.50;61.40
24744;DHT22;12844;52.110;5.548;2022-10-31T16:34:09;21.50;61.40
24744;DHT22;12844;52.110;5.548;2022-10-31T16:36:36;21.50;61.40
24744;DHT22;12844;52.110;5.548;2022-10-31T16:39:05;21.50;61.40
24744;DHT22;12844;52.110;5.548;2022-10-31T16:41:39;21.50;61.30
24744;DHT22;12844;52.110;5.548;2022-10-31T16:44:15;21.50;61.20
24744;DHT22;12844;52.110;5.548;2022-10-31T16:46:42;21.50;61.00
24744;DHT22;12844;52.110;5.548;2022-10-31T16:49:11;21.40;60.90
24744;DHT22;12844;52.110;5.548;2022-10-31T16:51:36;21.50;60.90
24744;DHT22;12844;52.110;5.548;2022-10-31T16:54:02;21.50;60.90
24744;DHT22;12844;52.110;5.548;2022-10-31T16:56:30;21.50;60.80
24744;DHT22;12844;52.110;5.548;2022-10-31T16:58:56;21.40;60.70
24744;DHT22;12844;52.110;5.548;2022-10-31T17:01:22;21.40;60.70
24744;DHT22;12844;52.110;5.548;2022-10-31T17:03:48;21.40;60.70
24744;DHT22;12844;52.110;5.548;2022-10-31T17:06:13;21.40;60.60
24744;DHT22;12844;52.110;5.548;2022-10-31T17:08:39;21.40;60.60
24744;DHT22;12844;52.110;5.548;2022-10-31T17:11:05;21.40;60.60
24744;DHT22;12844;52.110;5.548;2022-10-31T17:13:33;21.40;60.60
24744;DHT22;12844;52.110;5.548;2022-10-31T17:16:01;21.50;60.60
24744;DHT22;12844;52.110;5.548;2022-10-31T17:18:27;21.40;60.50
24744;DHT22;12844;52.110;5.548;2022-10-31T17:21:01;21.40;60.60
24744;DHT22;12844;52.110;5.548;2022-10-31T17:23:28;21.40;60.60
24744;DHT22;12844;52.110;5.548;2022-10-31T17:25:53;21.40;60.60
24744;DHT22;12844;52.110;5.548;2022-10-31T17:28:19;21.40;60.70
24744;DHT22;12844;52.110;5.548;2022-10-31T17:30:45;21.40;60.70
24744;DHT22;12844;52.110;5.548;2022-10-31T17:33:15;21.40;60.80
24744;DHT22;12844;52.110;5.548;2022-10-31T17:35:41;21.40;60.70
24744;DHT22;12844;52.110;5.548;2022-10-31T17:38:07;21.40;60.70
24744;DHT22;12844;52.110;5.548;2022-10-31T17:40:33;21.50;60.80
24744;DHT22;12844;52.110;5.548;2022-10-31T17:42:58;21.50;60.90
24744;DHT22;12844;52.110;5.548;2022-10-31T17:45:25;21.40;60.70
24744;DHT22;12844;52.110;5.548;2022-10-31T17:47:52;21.40;60.70
24744;DHT22;12844;52.110;5.548;2022-10-31T17:50:20;21.40;60.70
24744;DHT22;12844;52.110;5.548;2022-10-31T17:52:45;21.40;60.70
24744;DHT22;12844;52.110;5.548;2022-10-31T17:55:12;21.40;60.70
24744;DHT22;12844;52.110;5.548;2022-10-31T17:57:37;21.40;60.70
24744;DHT22;12844;52.110;5.548;2022-10-31T18:00:05;21.40;60.70
24744;DHT22;12844;52.110;5.548;2022-10-31T18:02:31;21.50;60.80
24744;DHT22;12844;52.110;5.548;2022-10-31T18:04:57;21.40;60.70
24744;DHT22;12844;52.110;5.548;2022-10-31T18:07:22;21.40;60.70
24744;DHT22;12844;52.110;5.548;2022-10-31T18:09:48;21.40;60.70
24744;DHT22;12844;52.110;5.548;2022-10-31T18:12:14;21.40;60.80
24744;DHT22;12844;52.110;5.548;2022-10-31T18:14:41;21.40;60.80
24744;DHT22;12844;52.110;5.548;2022-10-31T18:17:06;21.40;60.80
24744;DHT22;12844;52.110;5.548;2022-10-31T18:19:33;21.40;60.70
24744;DHT22;12844;52.110;5.548;2022-10-31T18:21:58;21.40;60.70
24744;DHT22;12844;52.110;5.548;2022-10-31T18:24:24;21.40;60.70
24744;DHT22;12844;52.110;5.548;2022-10-31T18:26:50;21.40;60.70
24744;DHT22;12844;52.110;5.548;2022-10-31T18:29:15;21.50;61.60
24744;DHT22;12844;52.110;5.548;2022-10-31T18:31:41;21.40;60.80
24744;DHT22;12844;52.110;5.548;2022-10-31T18:34:07;21.40;60.70
24744;DHT22;12844;52.110;5.548;2022-10-31T18:36:32;21.40;60.80
24744;DHT22;12844;52.110;5.548;2022-10-31T18:38:58;21.40;60.70
24744;DHT22;12844;52.110;5.548;2022-10-31T18:41:23;21.40;60.70
24744;DHT22;12844;52.110;5.548;2022-10-31T18:43:49;21.40;60.70
24744;DHT22;12844;52.110;5.548;2022-10-31T18:46:16;21.40;60.70
24744;DHT22;12844;52.110;5.548;2022-10-31T18:48:43;21.40;60.70
24744;DHT22;12844;52.110;5.548;2022-10-31T18:51:11;21.40;60.80
24744;DHT22;12844;52.110;5.548;2022-10-31T18:53:38;21.40;60.80
24744;DHT22;12844;52.110;5.548;2022-10-31T18:56:08;21.40;60.80
24744;DHT22;12844;52.110;5.548;2022-10-31T18:58:34;21.40;60.90
24744;DHT22;12844;52.110;5.548;2022-10-31T19:01:05;21.40;60.80
24744;DHT22;12844;52.110;5.548;2022-10-31T19:03:30;21.50;60.90
24744;DHT22;12844;52.110;5.548;2022-10-31T19:05:56;21.40;60.90
24744;DHT22;12844;52.110;5.548;2022-10-31T19:08:21;21.40;60.90
24744;DHT22;12844;52.110;5.548;2022-10-31T19:10:47;21.40;60.80
24744;DHT22;12844;52.110;5.548;2022-10-31T19:13:12;21.40;60.80
24744;DHT22;12844;52.110;5.548;2022-10-31T19:15:38;21.50;60.80
24744;DHT22;12844;52.110;5.548;2022-10-31T19:18:04;21.40;60.80
24744;DHT22;12844;52.110;5.548;2022-10-31T19:20:30;21.40;60.70
24744;DHT22;12844;52.110;5.548;2022-10-31T19:22:55;21.40;60.70
24744;DHT22;12844;52.110;5.548;2022-10-31T19:25:21;21.40;60.70
24744;DHT22;12844;52.110;5.548;2022-10-31T19:27:47;21.40;60.80
24744;DHT22;12844;52.110;5.548;2022-10-31T19:30:13;21.40;60.80
24744;DHT22;12844;52.110;5.548;2022-10-31T19:32:39;21.40;60.90
24744;DHT22;12844;52.110;5.548;2022-10-31T19:35:05;21.40;61.00
24744;DHT22;12844;52.110;5.548;2022-10-31T19:37:34;21.40;60.80
24744;DHT22;12844;52.110;5.548;2022-10-31T19:40:00;21.40;60.90
24744;DHT22;12844;52.110;5.548;2022-10-31T19:42:25;21.40;61.00
24744;DHT22;12844;52.110;5.548;2022-10-31T19:44:51;21.40;61.00
24744;DHT22;12844;52.110;5.548;2022-10-31T19:47:16;21.40;60.90
24744;DHT22;12844;52.110;5.548;2022-10-31T19:49:42;21.40;61.00
24744;DHT22;12844;52.110;5.548;2022-10-31T19:52:08;21.40;61.00
24744;DHT22;12844;52.110;5.548;2022-10-31T19:54:33;21.40;61.00
24744;DHT22;12844;52.110;5.548;2022-10-31T19:56:59;21.40;61.10
24744;DHT22;12844;52.110;5.548;2022-10-31T19:59:24;21.40;61.20
24744;DHT22;12844;52.110;5.548;2022-10-31T20:01:50;21.50;61.30
24744;DHT22;12844;52.110;5.548;2022-10-31T20:04:16;21.40;61.20
24744;DHT22;12844;52.110;5.548;2022-10-31T20:06:41;21.40;61.20
24744;DHT22;12844;52.110;5.548;2022-10-31T20:09:09;21.40;61.20
24744;DHT22;12844;52.110;5.548;2022-10-31T20:11:37;21.40;61.20
24744;DHT22;12844;52.110;5.548;2022-10-31T20:14:04;21.40;61.20
24744;DHT22;12844;52.110;5.548;2022-10-31T20:16:30;21.50;61.20
24744;DHT22;12844;52.110;5.548;2022-10-31T20:18:55;21.50;61.20
24744;DHT22;12844;52.110;5.548;2022-10-31T20:21:26;21.40;61.10
24744;DHT22;12844;52.110;5.548;2022-10-31T20:24:00;21.50;61.30
24744;DHT22;12844;52.110;5.548;2022-10-31T20:26:27;21.40;61.20
24744;DHT22;12844;52.110;5.548;2022-10-31T20:28:56;21.50;61.30
24744;DHT22;12844;52.110;5.548;2022-10-31T20:31:25;21.40;61.20
24744;DHT22;12844;52.110;5.548;2022-10-31T20:33:51;21.50;61.20
24744;DHT22;12844;52.110;5.548;2022-10-31T20:36:18;21.40;61.20
24744;DHT22;12844;52.110;5.548;2022-10-31T20:38:45;21.40;61.20
24744;DHT22;12844;52.110;5.548;2022-10-31T20:41:11;21.50;61.30
24744;DHT22;12844;52.110;5.548;2022-10-31T20:43:37;21.50;61.40
24744;DHT22;12844;52.110;5.548;2022-10-31T20:48:30;21.50;61.20
24744;DHT22;12844;52.110;5.548;2022-10-31T20:50:57;21.50;61.20
24744;DHT22;12844;52.110;5.548;2022-10-31T20:53:23;21.50;61.20
24744;DHT22;12844;52.110;5.548;2022-10-31T20:55:48;21.40;61.00
24744;DHT22;12844;52.110;5.548;2022-10-31T20:58:14;21.40;61.10
24744;DHT22;12844;52.110;5.548;2022-10-31T21:00:39;21.40;61.00
24744;DHT22;12844;52.110;5.548;2022-10-31T21:03:05;21.50;61.20
24744;DHT22;12844;52.110;5.548;2022-10-31T21:05:30;21.50;61.20
24744;DHT22;12844;52.110;5.548;2022-10-31T21:07:56;21.40;61.20
24744;DHT22;12844;52.110;5.548;2022-10-31T21:10:21;21.40;61.20
24744;DHT22;12844;52.110;5.548;2022-10-31T21:12:47;21.50;61.20
24744;DHT22;12844;52.110;5.548;2022-10-31T21:15:13;21.50;61.20
24744;DHT22;12844;52.110;5.548;2022-10-31T21:17:40;21.50;61.20
24744;DHT22;12844;52.110;5.548;2022-10-31T21:20:07;21.40;61.40
24744;DHT22;12844;52.110;5.548;2022-10-31T21:22:33;21.50;61.40
24744;DHT22;12844;52.110;5.548;2022-10-31T21:24:59;21.50;61.40
24744;DHT22;12844;52.110;5.548;2022-10-31T21:27:25;21.40;61.30
24744;DHT22;12844;52.110;5.548;2022-10-31T21:29:50;21.50;61.50
24744;DHT22;12844;52.110;5.548;2022-10-31T21:32:16;21.40;61.40
24744;DHT22;12844;52.110;5.548;2022-10-31T21:34:41;21.40;61.40
24744;DHT22;12844;52.110;5.548;2022-10-31T21:37:07;21.50;61.30
24744;DHT22;12844;52.110;5.548;2022-10-31T21:39:33;21.50;61.30
24744;DHT22;12844;52.110;5.548;2022-10-31T21:41:58;21.40;61.20
24744;DHT22;12844;52.110;5.548;2022-10-31T21:44:24;21.50;61.30
24744;DHT22;12844;52.110;5.548;2022-10-31T21:46:49;21.50;61.40
24744;DHT22;12844;52.110;5.548;2022-10-31T21:49:15;21.50;61.40
24744;DHT22;12844;52.110;5.548;2022-10-31T21:51:40;21.50;61.40
24744;DHT22;12844;52.110;5.548;2022-10-31T21:54:11;21.50;61.30
24744;DHT22;12844;52.110;5.548;2022-10-31T21:56:52;21.50;61.30
24744;DHT22;12844;52.110;5.548;2022-10-31T21:59:17;21.40;61.20
24744;DHT22;12844;52.110;5.548;2022-10-31T22:01:43;21.50;61.30
24744;DHT22;12844;52.110;5.548;2022-10-31T22:04:09;21.40;61.20
24744;DHT22;12844;52.110;5.548;2022-10-31T22:06:34;21.50;61.30
24744;DHT22;12844;52.110;5.548;2022-10-31T22:09:02;21.40;61.20
24744;DHT22;12844;52.110;5.548;2022-10-31T22:11:28;21.50;61.20
24744;DHT22;12844;52.110;5.548;2022-10-31T22:13:54;21.40;61.20
24744;DHT22;12844;52.110;5.548;2022-10-31T22:16:21;21.50;61.20
24744;DHT22;12844;52.110;5.548;2022-10-31T22:18:51;21.40;61.10
24744;DHT22;12844;52.110;5.548;2022-10-31T22:21:19;21.50;61.20
24744;DHT22;12844;52.110;5.548;2022-10-31T22:23:58;21.50;61.20
24744;DHT22;12844;52.110;5.548;2022-10-31T22:26:24;21.50;61.10
24744;DHT22;12844;52.110;5.548;2022-10-31T22:28:51;21.50;61.10
24744;DHT22;12844;52.110;5.548;2022-10-31T22:31:20;21.50;61.20
24744;DHT22;12844;52.110;5.548;2022-10-31T22:33:46;21.50;61.20
24744;DHT22;12844;52.110;5.548;2022-10-31T22:36:14;21.40;61.10
24744;DHT22;12844;52.110;5.548;2022-10-31T22:38:42;21.40;61.10
24744;DHT22;12844;52.110;5.548;2022-10-31T22:41:10;21.50;61.20
24744;DHT22;12844;52.110;5.548;2022-10-31T22:43:36;21.50;61.20
24744;DHT22;12844;52.110;5.548;2022-10-31T22:46:03;21.40;61.10
24744;DHT22;12844;52.110;5.548;2022-10-31T22:48:34;21.50;61.20
24744;DHT22;12844;52.110;5.548;2022-10-31T22:53:43;21.50;61.10
24744;DHT22;12844;52.110;5.548;2022-10-31T22:56:11;21.50;61.20
24744;DHT22;12844;52.110;5.548;2022-10-31T22:58:37;21.50;61.10
24744;DHT22;12844;52.110;5.548;2022-10-31T23:01:10;21.40;61.10
24744;DHT22;12844;52.110;5.548;2022-10-31T23:03:36;21.50;61.10
24744;DHT22;12844;52.110;5.548;2022-10-31T23:06:03;21.40;61.10
24744;DHT22;12844;52.110;5.548;2022-10-31T23:08:31;21.50;61.10
24744;DHT22;12844;52.110;5.548;2022-10-31T23:10:56;21.40;61.00
24744;DHT22;12844;52.110;5.548;2022-10-31T23:13:22;21.40;61.00
24744;DHT22;12844;52.110;5.548;2022-10-31T23:16:07;21.40;61.70
24744;DHT22;12844;52.110;5.548;2022-10-31T23:18:34;21.40;61.10
24744;DHT22;12844;52.110;5.548;2022-10-31T23:21:00;21.40;61.10
24744;DHT22;12844;52.110;5.548;2022-10-31T23:23:27;21.40;61.00
24744;DHT22;12844;52.110;5.548;2022-10-31T23:25:53;21.40;61.00
24744;DHT22;12844;52.110;5.548;2022-10-31T23:28:37;21.40;61.00
24744;DHT22;12844;52.110;5.548;2022-10-31T23:31:02;21.40;61.00
24744;DHT22;12844;52.110;5.548;2022-10-31T23:33:28;21.40;61.00
24744;DHT22;12844;52.110;5.548;2022-10-31T23:35:54;21.40;61.10
24744;DHT22;12844;52.110;5.548;2022-10-31T23:38:19;21.40;61.10
24744;DHT22;12844;52.110;5.548;2022-10-31T23:40:45;21.40;61.10
24744;DHT22;12844;52.110;5.548;2022-10-31T23:43:10;21.40;61.10
24744;DHT22;12844;52.110;5.548;2022-10-31T23:45:36;21.40;61.10
24744;DHT22;12844;52.110;5.548;2022-10-31T23:48:01;21.40;61.10
24744;DHT22;12844;52.110;5.548;2022-10-31T23:50:27;21.40;61.00
24744;DHT22;12844;52.110;5.548;2022-10-31T23:52:53;21.40;61.00
24744;DHT22;12844;52.110;5.548;2022-10-31T23:55:18;21.40;61.00
24744;DHT22;12844;52.110;5.548;2022-10-31T23:57:44;21.40;61.00
